Time;durP1;ratioP1;P1;durP2;ratioP2;P2;SDS_P1;SDS_P2;PMS_P1;PMS_P2;Temp;Humidity;BMP_temperature;BMP_pressure;BME280_temperature;BME280_humidity;BME280_pressure;Samples;Min_cycle;Max_cycle;Signal;HPM_P1;HPM_P2
2023/11/23 00:00:07;;;;;;;10.15;5.40;;;8.40;98.20;;;;;;6150754;23;20005;-68
2023/11/23 00:02:33;;;;;;;10.50;5.03;;;8.40;98.20;;;;;;6150922;23;20006;-68
2023/11/23 00:04:58;;;;;;;7.70;4.60;;;8.40;98.20;;;;;;6150127;23;20101;-68
2023/11/23 00:07:24;;;;;;;7.82;4.03;;;8.40;98.20;;;;;;6149041;23;20371;-68
2023/11/23 00:09:50;;;;;;;9.82;4.70;;;8.50;98.20;;;;;;6150430;23;20044;-67
2023/11/23 00:12:18;;;;;;;6.93;3.92;;;8.50;98.20;;;;;;6123665;23;20028;-69
2023/11/23 00:14:44;;;;;;;8.70;3.60;;;8.50;98.20;;;;;;6149786;23;20005;-68
2023/11/23 00:17:09;;;;;;;5.82;3.20;;;8.60;98.20;;;;;;6148565;23;20445;-68
2023/11/23 00:19:35;;;;;;;8.75;4.70;;;8.60;98.20;;;;;;6150602;23;20437;-68
2023/11/23 00:22:01;;;;;;;8.48;4.13;;;8.60;98.20;;;;;;6150160;23;20085;-68
2023/11/23 00:24:27;;;;;;;10.23;5.22;;;8.60;98.20;;;;;;6150317;23;20008;-67
2023/11/23 00:26:53;;;;;;;10.15;4.93;;;8.60;98.30;;;;;;6150108;23;20029;-67
2023/11/23 00:29:20;;;;;;;11.00;5.50;;;8.60;98.30;;;;;;6150535;23;20002;-67
2023/11/23 00:31:46;;;;;;;9.43;5.40;;;8.60;98.30;;;;;;6150681;23;20430;-67
2023/11/23 00:34:11;;;;;;;7.72;4.07;;;8.60;98.40;;;;;;6150262;23;20064;-68
2023/11/23 00:36:37;;;;;;;7.60;4.32;;;8.60;98.40;;;;;;6149972;23;20077;-69
2023/11/23 00:39:04;;;;;;;9.25;3.88;;;8.70;98.40;;;;;;6124902;23;20080;-69
2023/11/23 00:41:29;;;;;;;11.45;6.25;;;8.70;98.40;;;;;;6149981;23;20072;-70
2023/11/23 00:43:56;;;;;;;11.07;6.60;;;8.70;98.40;;;;;;6150504;23;20418;-69
2023/11/23 00:46:22;;;;;;;16.15;7.25;;;8.70;98.60;;;;;;6150418;23;20005;-69
2023/11/23 00:48:48;;;;;;;9.63;4.95;;;8.60;98.70;;;;;;6150722;23;20005;-69
2023/11/23 00:51:16;;;;;;;9.48;4.85;;;8.60;98.80;;;;;;6149424;23;19997;-68
2023/11/23 00:53:44;;;;;;;10.32;5.60;;;8.60;98.80;;;;;;6150295;23;20005;-68
2023/11/23 00:56:10;;;;;;;10.20;5.40;;;8.70;98.90;;;;;;6150669;23;20016;-69
2023/11/23 00:58:36;;;;;;;15.45;7.22;;;8.70;98.90;;;;;;6149994;23;20084;-69
2023/11/23 01:01:01;;;;;;;8.88;5.10;;;8.70;98.90;;;;;;6150698;23;20060;-69
2023/11/23 01:03:27;;;;;;;7.90;4.50;;;8.70;98.90;;;;;;6150452;23;20009;-69
2023/11/23 01:05:53;;;;;;;12.38;5.82;;;8.80;98.90;;;;;;6150644;23;20001;-69
2023/11/23 01:08:18;;;;;;;10.25;5.75;;;8.80;99.00;;;;;;6149797;23;20008;-69
2023/11/23 01:10:44;;;;;;;8.13;4.28;;;8.80;99.00;;;;;;6149570;23;20001;-69
2023/11/23 01:13:11;;;;;;;12.27;6.00;;;8.80;99.00;;;;;;6152099;23;20059;-69
2023/11/23 01:15:37;;;;;;;12.30;6.30;;;8.80;99.10;;;;;;6151856;23;20008;-69
2023/11/23 01:18:03;;;;;;;11.70;5.82;;;8.80;99.10;;;;;;6151087;23;20381;-69
2023/11/23 01:20:28;;;;;;;8.10;4.03;;;8.90;99.20;;;;;;6150670;23;20002;-69
2023/11/23 01:22:54;;;;;;;6.60;3.85;;;8.90;99.20;;;;;;6149711;23;20055;-68
2023/11/23 01:25:19;;;;;;;6.50;3.30;;;8.90;99.20;;;;;;6150236;23;20342;-67
2023/11/23 01:27:45;;;;;;;6.30;3.40;;;9.00;99.20;;;;;;6152096;23;20068;-70
2023/11/23 01:30:11;;;;;;;6.72;3.90;;;9.00;99.20;;;;;;6152247;23;20074;-68
2023/11/23 01:32:36;;;;;;;8.63;5.10;;;9.00;99.20;;;;;;6125995;23;20017;-68
2023/11/23 01:35:03;;;;;;;7.72;4.18;;;9.00;99.30;;;;;;6151608;23;20080;-69
2023/11/23 01:37:28;;;;;;;9.82;5.10;;;9.00;99.30;;;;;;6151988;23;20038;-70
2023/11/23 01:39:54;;;;;;;8.65;4.40;;;9.10;99.40;;;;;;6151577;23;20418;-69
2023/11/23 01:42:20;;;;;;;8.68;4.55;;;9.10;99.40;;;;;;6151143;23;20428;-69
2023/11/23 01:44:45;;;;;;;9.27;5.28;;;9.10;99.40;;;;;;6125271;23;20008;-70
2023/11/23 01:47:13;;;;;;;8.00;4.53;;;9.10;99.60;;;;;;6152198;23;20033;-69
2023/11/23 01:49:41;;;;;;;7.30;3.90;;;9.20;99.60;;;;;;6152040;23;20056;-70
2023/11/23 01:52:07;;;;;;;7.97;4.00;;;9.20;99.60;;;;;;6152275;23;20081;-70
2023/11/23 01:54:32;;;;;;;7.68;3.92;;;9.20;99.60;;;;;;6149928;23;20434;-67
2023/11/23 01:56:59;;;;;;;7.32;4.43;;;9.30;99.60;;;;;;6125712;23;20331;-69
2023/11/23 01:59:26;;;;;;;9.23;5.75;;;9.30;99.60;;;;;;6151319;23;20065;-69
2023/11/23 02:01:53;;;;;;;8.68;4.95;;;9.30;99.60;;;;;;6151108;23;20002;-70
2023/11/23 02:04:19;;;;;;;7.35;4.70;;;9.40;99.70;;;;;;6151257;23;20060;-69
2023/11/23 02:06:45;;;;;;;9.65;4.78;;;9.40;99.80;;;;;;6151604;23;20002;-68
2023/11/23 02:09:12;;;;;;;10.32;5.20;;;9.40;99.90;;;;;;6124393;23;20006;-68
2023/11/23 02:11:38;;;;;;;12.00;6.82;;;9.40;99.90;;;;;;6151021;23;20025;-69
2023/11/23 02:14:06;;;;;;;10.27;5.70;;;9.50;99.90;;;;;;6151115;23;20056;-69
2023/11/23 02:16:32;;;;;;;7.68;4.45;;;9.50;99.90;;;;;;6150617;23;20016;-68
2023/11/23 02:18:58;;;;;;;8.65;5.22;;;9.50;99.90;;;;;;6151192;23;20031;-69
2023/11/23 02:21:24;;;;;;;7.35;4.47;;;9.60;99.90;;;;;;6150772;23;20015;-67
2023/11/23 02:23:50;;;;;;;6.07;3.75;;;9.60;99.90;;;;;;6150508;23;20032;-69
2023/11/23 02:26:16;;;;;;;5.60;3.22;;;9.70;99.90;;;;;;6151036;23;20056;-67
2023/11/23 02:28:42;;;;;;;6.82;4.05;;;9.70;99.90;;;;;;6148532;23;20438;-70
2023/11/23 02:31:07;;;;;;;7.55;3.88;;;9.70;99.90;;;;;;6151535;23;19997;-70
2023/11/23 02:33:33;;;;;;;6.30;3.88;;;9.70;99.90;;;;;;6150442;23;20001;-69
2023/11/23 02:35:58;;;;;;;6.85;4.30;;;9.80;99.90;;;;;;6151349;23;20002;-68
2023/11/23 02:38:24;;;;;;;10.60;5.53;;;9.80;99.90;;;;;;6149664;23;20488;-70
2023/11/23 02:40:50;;;;;;;10.20;5.53;;;9.80;99.90;;;;;;6150728;23;20022;-70
2023/11/23 02:43:16;;;;;;;6.70;3.83;;;9.80;99.90;;;;;;6150027;23;20005;-70
2023/11/23 02:45:41;;;;;;;17.83;10.80;;;9.80;99.90;;;;;;6148391;23;20001;-68
2023/11/23 02:48:07;;;;;;;12.27;6.38;;;9.80;99.90;;;;;;6124937;23;20002;-70
2023/11/23 02:50:33;;;;;;;9.82;4.63;;;9.90;99.90;;;;;;6150568;23;20002;-67
2023/11/23 02:53:01;;;;;;;9.75;5.93;;;9.90;99.90;;;;;;6151045;23;20093;-68
2023/11/23 02:55:26;;;;;;;7.05;4.65;;;9.90;99.90;;;;;;6120965;23;20032;-69
2023/11/23 02:57:52;;;;;;;8.43;4.90;;;10.00;99.90;;;;;;6151433;23;20009;-69
2023/11/23 03:00:18;;;;;;;6.32;4.03;;;10.00;99.90;;;;;;6125103;23;20103;-69
2023/11/23 03:02:43;;;;;;;5.95;3.58;;;10.00;99.90;;;;;;6151819;23;20429;-69
2023/11/23 03:05:10;;;;;;;8.40;4.28;;;10.00;99.90;;;;;;6124141;23;20037;-69
2023/11/23 03:07:36;;;;;;;7.07;4.38;;;10.10;99.90;;;;;;6150486;23;20337;-68
2023/11/23 03:10:02;;;;;;;5.88;3.85;;;10.10;99.90;;;;;;6151211;23;20025;-68
2023/11/23 03:12:28;;;;;;;8.57;5.60;;;10.00;99.90;;;;;;6150758;23;20446;-67
2023/11/23 03:14:55;;;;;;;11.35;6.03;;;10.10;99.90;;;;;;6148914;23;20005;-66
2023/11/23 03:17:21;;;;;;;9.07;5.90;;;10.10;99.90;;;;;;6150363;23;20073;-68
2023/11/23 03:19:47;;;;;;;8.60;4.60;;;10.10;99.90;;;;;;6151244;23;20049;-68
2023/11/23 03:22:13;;;;;;;8.15;4.57;;;10.20;99.90;;;;;;6152671;23;20068;-68
2023/11/23 03:24:38;;;;;;;6.60;3.53;;;10.20;99.90;;;;;;6151808;23;19997;-66
2023/11/23 03:27:04;;;;;;;6.22;3.80;;;10.20;99.90;;;;;;6150323;23;20056;-67
2023/11/23 03:29:29;;;;;;;7.63;4.07;;;10.20;99.90;;;;;;6151970;23;20006;-68
2023/11/23 03:31:55;;;;;;;8.40;4.28;;;10.20;99.90;;;;;;6151687;23;20005;-67
2023/11/23 03:34:21;;;;;;;8.70;4.57;;;10.30;99.90;;;;;;6150946;23;20027;-67
2023/11/23 03:36:46;;;;;;;8.30;5.65;;;10.30;99.90;;;;;;6150823;23;20017;-66
2023/11/23 03:39:12;;;;;;;9.40;5.85;;;10.30;99.90;;;;;;6153086;23;20477;-68
2023/11/23 03:41:38;;;;;;;6.78;4.55;;;10.30;99.90;;;;;;6152493;23;20370;-68
2023/11/23 03:44:04;;;;;;;8.75;5.20;;;10.30;99.90;;;;;;6152434;23;20006;-66
2023/11/23 03:46:30;;;;;;;9.50;4.70;;;10.30;99.90;;;;;;6152847;23;20010;-66
2023/11/23 03:48:56;;;;;;;6.70;4.40;;;10.30;99.90;;;;;;6152040;23;20005;-66
2023/11/23 03:51:23;;;;;;;8.52;4.35;;;10.30;99.90;;;;;;6152598;23;20047;-65
2023/11/23 03:53:49;;;;;;;6.97;4.35;;;10.30;99.90;;;;;;6151132;23;20033;-67
2023/11/23 03:56:18;;;;;;;7.57;5.05;;;10.40;99.90;;;;;;6152641;23;20028;-66
2023/11/23 03:58:44;;;;;;;12.98;6.13;;;10.30;99.90;;;;;;6153001;23;20009;-67
2023/11/23 04:01:09;;;;;;;8.52;5.32;;;10.40;99.90;;;;;;6151497;23;20438;-67
2023/11/23 04:03:35;;;;;;;9.82;5.65;;;10.40;99.90;;;;;;6151237;23;20005;-68
2023/11/23 04:06:02;;;;;;;8.00;4.57;;;10.40;99.90;;;;;;6152057;23;20080;-67
2023/11/23 04:08:27;;;;;;;7.93;4.55;;;10.40;99.90;;;;;;6152002;23;20005;-67
2023/11/23 04:10:53;;;;;;;8.82;4.72;;;10.40;99.90;;;;;;6152496;23;20374;-67
2023/11/23 04:13:18;;;;;;;7.90;4.32;;;10.40;99.90;;;;;;6152515;23;20006;-65
2023/11/23 04:15:45;;;;;;;8.80;5.63;;;10.40;99.90;;;;;;6152333;23;20418;-67
2023/11/23 04:18:11;;;;;;;8.07;4.80;;;10.40;99.90;;;;;;6152947;23;20011;-66
2023/11/23 04:20:37;;;;;;;6.00;3.90;;;10.40;99.90;;;;;;6152256;23;20069;-67
2023/11/23 04:23:02;;;;;;;6.80;4.10;;;10.40;99.90;;;;;;6152311;23;20001;-67
2023/11/23 04:25:28;;;;;;;10.02;4.60;;;10.40;99.90;;;;;;6152668;23;20008;-67
2023/11/23 04:27:54;;;;;;;6.35;3.88;;;10.40;99.90;;;;;;6151881;23;20434;-66
2023/11/23 04:30:20;;;;;;;6.93;4.03;;;10.40;99.90;;;;;;6152490;23;20012;-67
2023/11/23 04:32:46;;;;;;;5.10;3.75;;;10.40;99.90;;;;;;6152213;23;20001;-67
2023/11/23 04:35:11;;;;;;;7.20;4.60;;;10.50;99.90;;;;;;6152490;23;20088;-66
2023/11/23 04:37:37;;;;;;;6.50;4.25;;;10.50;99.90;;;;;;6152312;23;20089;-67
2023/11/23 04:40:06;;;;;;;8.07;4.10;;;10.50;99.90;;;;;;6152271;23;20092;-66
2023/11/23 04:42:33;;;;;;;4.75;3.17;;;10.50;99.90;;;;;;6151161;23;20009;-67
2023/11/23 04:44:58;;;;;;;6.13;3.25;;;10.60;99.90;;;;;;6152349;23;20006;-67
2023/11/23 04:47:24;;;;;;;5.93;3.70;;;10.60;99.90;;;;;;6151962;23;20064;-67
2023/11/23 04:49:49;;;;;;;6.57;4.18;;;10.60;99.90;;;;;;6151922;23;20463;-67
2023/11/23 04:52:15;;;;;;;8.18;4.38;;;10.60;99.90;;;;;;6152243;23;20462;-68
2023/11/23 04:54:40;;;;;;;6.20;3.90;;;10.60;99.90;;;;;;6152058;23;20008;-66
2023/11/23 04:57:06;;;;;;;5.28;3.30;;;10.60;99.90;;;;;;6152443;23;20072;-67
2023/11/23 04:59:31;;;;;;;5.43;3.47;;;10.60;99.90;;;;;;6151596;23;19998;-69
2023/11/23 05:01:57;;;;;;;6.18;3.50;;;10.70;99.90;;;;;;6152054;23;20072;-69
2023/11/23 05:04:22;;;;;;;8.60;3.90;;;10.70;99.90;;;;;;6151677;23;20012;-69
2023/11/23 05:06:48;;;;;;;7.63;3.90;;;10.70;99.90;;;;;;6152088;23;19998;-68
2023/11/23 05:09:14;;;;;;;6.78;3.70;;;10.70;99.90;;;;;;6151785;23;19997;-68
2023/11/23 05:11:39;;;;;;;4.75;2.72;;;10.70;99.90;;;;;;6149978;23;20006;-68
2023/11/23 05:14:08;;;;;;;8.45;4.68;;;10.70;99.90;;;;;;6148297;23;20013;-69
2023/11/23 05:16:34;;;;;;;8.30;4.35;;;10.70;99.90;;;;;;6125056;23;20062;-70
2023/11/23 05:19:00;;;;;;;5.97;3.75;;;10.70;99.90;;;;;;6151876;23;20407;-69
2023/11/23 05:21:25;;;;;;;5.07;2.95;;;10.70;99.90;;;;;;6150476;23;20106;-69
2023/11/23 05:23:51;;;;;;;5.03;3.00;;;10.70;99.90;;;;;;6151886;23;20080;-69
2023/11/23 05:26:16;;;;;;;3.88;2.75;;;10.70;99.90;;;;;;6151756;23;19997;-68
2023/11/23 05:28:42;;;;;;;5.00;2.97;;;10.70;99.90;;;;;;6125098;23;20002;-68
2023/11/23 05:31:07;;;;;;;4.53;3.03;;;10.70;99.90;;;;;;6149532;23;20002;-69
2023/11/23 05:33:33;;;;;;;6.07;3.60;;;10.80;99.90;;;;;;6149576;23;20006;-69
2023/11/23 05:35:58;;;;;;;6.75;3.83;;;10.70;99.90;;;;;;6151514;23;20350;-67
2023/11/23 05:38:25;;;;;;;5.43;2.80;;;10.80;99.90;;;;;;6149675;23;20008;-68
2023/11/23 05:40:50;;;;;;;9.05;3.67;;;10.70;99.90;;;;;;6151427;23;20530;-68
2023/11/23 05:43:18;;;;;;;5.90;3.10;;;10.70;99.90;;;;;;6150947;23;20001;-68
2023/11/23 05:45:44;;;;;;;5.85;2.92;;;10.80;99.90;;;;;;6125684;23;20029;-67
2023/11/23 05:48:09;;;;;;;5.03;3.15;;;10.70;99.90;;;;;;6151790;23;20086;-67
2023/11/23 05:50:35;;;;;;;4.88;2.55;;;10.80;99.90;;;;;;6148631;23;20006;-66
2023/11/23 05:53:00;;;;;;;4.45;2.75;;;10.80;99.90;;;;;;6121784;23;20005;-68
2023/11/23 05:55:26;;;;;;;6.03;2.90;;;10.80;99.90;;;;;;6151402;23;20002;-68
2023/11/23 05:57:51;;;;;;;3.58;2.50;;;10.80;99.90;;;;;;6151319;23;20006;-68
2023/11/23 06:00:17;;;;;;;2.92;2.17;;;10.80;99.90;;;;;;6151463;23;20053;-68
2023/11/23 06:02:43;;;;;;;6.28;3.83;;;10.80;99.90;;;;;;6151245;23;20012;-68
2023/11/23 06:05:09;;;;;;;6.30;3.55;;;10.90;99.90;;;;;;6151517;23;20064;-69
2023/11/23 06:07:34;;;;;;;4.78;3.15;;;10.80;99.90;;;;;;6150007;23;20002;-69
2023/11/23 06:10:01;;;;;;;4.63;2.80;;;10.80;99.90;;;;;;6150919;23;20009;-69
2023/11/23 06:12:27;;;;;;;4.57;2.90;;;10.90;99.90;;;;;;6151246;23;20008;-68
2023/11/23 06:14:53;;;;;;;7.45;3.40;;;10.80;99.90;;;;;;6149814;23;20449;-68
2023/11/23 06:17:19;;;;;;;6.32;3.92;;;10.90;99.90;;;;;;6122731;23;20010;-68
2023/11/23 06:19:44;;;;;;;7.05;3.67;;;10.90;99.90;;;;;;6149188;23;20012;-68
2023/11/23 06:22:11;;;;;;;4.70;3.13;;;10.90;99.90;;;;;;6150895;23;20011;-68
2023/11/23 06:24:36;;;;;;;5.70;3.13;;;10.90;99.90;;;;;;6150460;23;19997;-69
2023/11/23 06:27:03;;;;;;;7.05;3.92;;;10.90;99.90;;;;;;6124796;23;20057;-69
2023/11/23 06:29:28;;;;;;;4.78;3.15;;;10.90;99.90;;;;;;6150869;23;20001;-69
2023/11/23 06:31:56;;;;;;;6.60;3.30;;;10.90;99.90;;;;;;6150444;23;20073;-68
2023/11/23 06:34:22;;;;;;;4.78;3.22;;;10.90;99.90;;;;;;6145488;23;20005;-67
2023/11/23 06:36:49;;;;;;;8.27;3.95;;;10.90;99.90;;;;;;6150338;23;20009;-67
2023/11/23 06:39:23;;;;;;;6.28;3.45;;;10.90;99.90;;;;;;6150745;23;20012;-68
2023/11/23 06:41:53;;;;;;;4.35;3.00;;;10.90;99.90;;;;;;6149856;23;20084;-68
2023/11/23 06:44:23;;;;;;;5.15;2.88;;;10.90;99.90;;;;;;6150667;23;20001;-68
2023/11/23 06:46:48;;;;;;;9.60;4.53;;;10.90;99.90;;;;;;6150979;23;19998;-67
2023/11/23 06:49:14;;;;;;;7.10;3.50;;;11.00;99.90;;;;;;6150512;23;20374;-66
2023/11/23 06:51:40;;;;;;;7.07;4.20;;;11.00;99.90;;;;;;6149276;23;20033;-66
2023/11/23 06:54:06;;;;;;;7.13;4.45;;;11.00;99.90;;;;;;6149063;23;20009;-67
2023/11/23 06:56:32;;;;;;;6.68;3.22;;;10.90;99.90;;;;;;6151410;23;20049;-67
2023/11/23 06:58:58;;;;;;;7.53;4.30;;;11.00;99.90;;;;;;6151104;23;20009;-68
2023/11/23 07:01:23;;;;;;;11.43;5.85;;;11.00;99.90;;;;;;6149149;23;20001;-65
2023/11/23 07:03:50;;;;;;;8.02;4.90;;;11.00;99.90;;;;;;6150680;23;20005;-68
2023/11/23 07:06:16;;;;;;;8.48;4.47;;;11.00;99.90;;;;;;6150729;23;20044;-68
2023/11/23 07:08:42;;;;;;;5.00;3.20;;;11.00;99.90;;;;;;6150149;23;20002;-69
2023/11/23 07:11:08;;;;;;;7.25;3.63;;;11.00;99.90;;;;;;6150632;23;20081;-69
2023/11/23 07:13:34;;;;;;;7.35;3.90;;;11.10;99.90;;;;;;6150522;23;20481;-69
2023/11/23 07:16:01;;;;;;;6.32;3.80;;;11.10;99.90;;;;;;6151081;23;20015;-69
2023/11/23 07:18:27;;;;;;;7.05;3.42;;;11.10;99.90;;;;;;6149691;23;20186;-69
2023/11/23 07:20:55;;;;;;;5.82;3.55;;;11.10;99.90;;;;;;6151203;23;20403;-69
2023/11/23 07:23:22;;;;;;;5.47;3.13;;;11.10;99.90;;;;;;6148900;23;20008;-67
2023/11/23 07:25:48;;;;;;;7.35;3.50;;;11.10;99.90;;;;;;6149768;23;20076;-69
2023/11/23 07:28:13;;;;;;;5.07;3.28;;;11.10;99.90;;;;;;6150533;23;20029;-68
2023/11/23 07:30:39;;;;;;;10.23;4.82;;;11.10;99.90;;;;;;6150195;23;20085;-68
2023/11/23 07:33:07;;;;;;;7.05;3.78;;;11.10;99.90;;;;;;6150744;23;20009;-67
2023/11/23 07:35:33;;;;;;;6.65;3.80;;;11.10;99.90;;;;;;6150140;23;20012;-68
2023/11/23 07:38:00;;;;;;;8.38;4.60;;;11.10;99.90;;;;;;6149425;23;20008;-68
2023/11/23 07:40:26;;;;;;;10.23;5.05;;;11.10;99.90;;;;;;6122146;23;20006;-67
2023/11/23 07:42:51;;;;;;;6.03;3.75;;;11.00;99.90;;;;;;6151022;23;20389;-68
2023/11/23 07:45:17;;;;;;;8.27;4.40;;;11.10;99.90;;;;;;6150424;23;20002;-67
2023/11/23 07:47:43;;;;;;;5.65;3.50;;;11.10;99.90;;;;;;6150686;23;20001;-68
2023/11/23 07:50:09;;;;;;;7.50;3.90;;;11.10;99.90;;;;;;6150641;23;20402;-67
2023/11/23 07:52:35;;;;;;;6.63;4.13;;;11.10;99.90;;;;;;6147722;23;20064;-67
2023/11/23 07:55:00;;;;;;;6.53;3.90;;;11.10;99.90;;;;;;6150983;23;20010;-67
2023/11/23 07:57:26;;;;;;;9.13;3.90;;;11.10;99.90;;;;;;6150029;23;20450;-66
2023/11/23 07:59:56;;;;;;;5.85;3.05;;;11.10;99.90;;;;;;6150856;23;20337;-68
2023/11/23 08:02:23;;;;;;;6.40;3.70;;;11.10;99.90;;;;;;6122859;23;20009;-67
2023/11/23 08:04:49;;;;;;;5.45;3.05;;;11.20;99.90;;;;;;6150290;23;20081;-67
2023/11/23 08:07:15;;;;;;;6.85;3.50;;;11.20;99.90;;;;;;6151757;23;20056;-67
2023/11/23 08:09:41;;;;;;;4.47;2.60;;;11.20;99.90;;;;;;6152676;23;20002;-68
2023/11/23 08:12:09;;;;;;;4.97;2.67;;;11.20;99.90;;;;;;6152322;23;20316;-69
2023/11/23 08:14:37;;;;;;;5.28;3.20;;;11.20;99.90;;;;;;6152133;23;20001;-68
2023/11/23 08:17:03;;;;;;;5.28;3.10;;;11.20;99.90;;;;;;6152523;23;20054;-68
2023/11/23 08:19:30;;;;;;;6.47;3.33;;;11.20;99.90;;;;;;6125510;23;20395;-67
2023/11/23 08:21:56;;;;;;;6.68;3.38;;;11.30;99.90;;;;;;6152477;23;20415;-68
2023/11/23 08:24:22;;;;;;;7.95;3.78;;;11.30;99.90;;;;;;6150027;23;20081;-68
2023/11/23 08:26:49;;;;;;;6.60;2.90;;;11.30;99.90;;;;;;6125446;23;20378;-68
2023/11/23 08:29:15;;;;;;;7.60;3.70;;;11.30;99.90;;;;;;6152023;23;20008;-68
2023/11/23 08:31:43;;;;;;;5.60;3.30;;;11.30;99.90;;;;;;6147344;23;19997;-68
2023/11/23 08:34:10;;;;;;;8.18;4.10;;;11.30;99.90;;;;;;6151488;23;20485;-68
2023/11/23 08:36:35;;;;;;;5.63;3.10;;;11.30;99.90;;;;;;6150542;23;20709;-68
2023/11/23 08:39:02;;;;;;;4.70;3.20;;;11.30;99.90;;;;;;6151078;23;20048;-68
2023/11/23 08:41:30;;;;;;;4.00;2.55;;;11.30;99.90;;;;;;6148525;23;20798;-67
2023/11/23 08:43:56;;;;;;;5.55;3.10;;;11.30;99.90;;;;;;6150944;23;20054;-68
2023/11/23 08:46:21;;;;;;;5.65;3.22;;;11.30;99.90;;;;;;6150997;23;20001;-68
2023/11/23 08:48:47;;;;;;;4.07;2.72;;;11.30;99.90;;;;;;6125159;23;20009;-68
2023/11/23 08:51:14;;;;;;;4.57;2.65;;;11.40;99.90;;;;;;6150767;23;20028;-68
2023/11/23 08:53:40;;;;;;;4.90;2.72;;;11.40;99.90;;;;;;6151760;23;20006;-68
2023/11/23 08:56:06;;;;;;;4.95;2.63;;;11.40;99.90;;;;;;6149943;23;20010;-68
2023/11/23 08:58:32;;;;;;;5.93;3.20;;;11.40;99.90;;;;;;6150324;23;20382;-68
2023/11/23 09:00:57;;;;;;;4.28;2.90;;;11.40;99.90;;;;;;6149384;23;20005;-69
2023/11/23 09:03:23;;;;;;;3.25;2.25;;;11.50;99.90;;;;;;6150685;23;20087;-68
2023/11/23 09:05:49;;;;;;;3.78;2.55;;;11.50;99.90;;;;;;6150378;23;20001;-67
2023/11/23 09:08:14;;;;;;;5.75;3.20;;;11.50;99.90;;;;;;6150731;23;20004;-67
2023/11/23 09:10:40;;;;;;;5.53;2.90;;;11.50;99.90;;;;;;6151081;23;20033;-68
2023/11/23 09:13:05;;;;;;;3.92;2.78;;;11.50;99.90;;;;;;6148044;23;20009;-68
2023/11/23 09:15:32;;;;;;;4.75;2.40;;;11.50;99.90;;;;;;6150172;23;20055;-68
2023/11/23 09:17:58;;;;;;;6.95;2.78;;;11.60;99.90;;;;;;6150870;23;20013;-68
2023/11/23 09:20:23;;;;;;;4.55;3.20;;;11.60;99.90;;;;;;6151173;23;20389;-68
2023/11/23 09:22:50;;;;;;;4.97;2.50;;;11.70;99.90;;;;;;6150520;23;20084;-68
2023/11/23 09:25:16;;;;;;;5.05;2.90;;;11.70;99.90;;;;;;6149099;23;20002;-70
2023/11/23 09:27:42;;;;;;;5.03;2.83;;;11.80;99.90;;;;;;6150960;23;20076;-69
2023/11/23 09:30:09;;;;;;;3.78;2.70;;;11.80;99.90;;;;;;6150134;23;20355;-69
2023/11/23 09:32:36;;;;;;;3.03;2.15;;;11.80;99.90;;;;;;6150664;23;20072;-68
2023/11/23 09:35:04;;;;;;;6.68;3.60;;;11.90;99.90;;;;;;6151337;23;20029;-67
2023/11/23 09:37:29;;;;;;;6.55;3.33;;;11.90;99.90;;;;;;6151067;23;20001;-68
2023/11/23 09:39:55;;;;;;;6.05;2.80;;;11.90;99.90;;;;;;6151251;23;20012;-68
2023/11/23 09:42:21;;;;;;;5.95;3.70;;;11.90;99.90;;;;;;6147920;23;20014;-69
2023/11/23 09:44:48;;;;;;;5.30;3.80;;;11.90;99.90;;;;;;6150236;23;20284;-69
2023/11/23 09:47:14;;;;;;;6.47;3.20;;;11.90;99.90;;;;;;6150425;23;20040;-70
2023/11/23 09:49:41;;;;;;;5.32;3.42;;;11.90;99.90;;;;;;6151025;23;20457;-69
2023/11/23 09:52:07;;;;;;;4.25;2.80;;;11.90;99.90;;;;;;6150446;23;20005;-69
2023/11/23 09:54:33;;;;;;;4.53;2.70;;;12.00;99.90;;;;;;6150630;23;20337;-67
2023/11/23 09:56:59;;;;;;;4.38;2.58;;;12.00;99.90;;;;;;6150770;23;20001;-68
2023/11/23 09:59:28;;;;;;;4.53;2.40;;;12.10;99.90;;;;;;6151266;23;20457;-66
2023/11/23 10:02:03;;;;;;;5.22;2.92;;;12.10;99.90;;;;;;6123092;23;20468;-69
2023/11/23 10:04:29;;;;;;;4.13;2.88;;;12.10;99.90;;;;;;6150548;23;20001;-67
2023/11/23 10:06:56;;;;;;;5.43;2.97;;;12.10;99.90;;;;;;6150307;23;20008;-68
2023/11/23 10:09:26;;;;;;;5.05;3.60;;;12.10;99.90;;;;;;6151077;23;20013;-67
2023/11/23 10:11:54;;;;;;;6.53;3.47;;;12.20;99.90;;;;;;6150314;23;20009;-69
2023/11/23 10:14:20;;;;;;;7.57;4.15;;;12.20;99.90;;;;;;6148216;23;20005;-68
2023/11/23 10:16:46;;;;;;;5.82;3.30;;;12.20;99.90;;;;;;6151634;23;20276;-69
2023/11/23 10:19:21;;;;;;;5.22;2.70;;;12.20;99.90;;;;;;6151657;23;20535;-68
2023/11/23 10:21:47;;;;;;;6.15;3.55;;;12.30;99.90;;;;;;6151025;23;20005;-69
2023/11/23 10:24:13;;;;;;;5.40;3.20;;;12.30;99.90;;;;;;6123571;23;20001;-69
2023/11/23 10:26:39;;;;;;;4.90;2.70;;;12.30;99.90;;;;;;6150415;23;20005;-69
2023/11/23 10:29:09;;;;;;;4.47;3.15;;;12.30;99.90;;;;;;6149273;23;20002;-68
2023/11/23 10:31:35;;;;;;;4.65;2.67;;;12.30;99.90;;;;;;6150231;23;20008;-70
2023/11/23 10:34:02;;;;;;;4.20;2.83;;;12.40;99.90;;;;;;6150690;23;20028;-69
2023/11/23 10:36:28;;;;;;;4.60;2.78;;;12.40;99.90;;;;;;6150578;23;20021;-68
2023/11/23 10:38:59;;;;;;;3.63;2.20;;;12.40;99.90;;;;;;6150617;23;20056;-69
2023/11/23 10:41:25;;;;;;;2.97;2.00;;;12.50;99.90;;;;;;6151202;23;20468;-69
2023/11/23 10:43:50;;;;;;;4.22;2.13;;;12.50;99.90;;;;;;6149685;23;20001;-68
2023/11/23 10:56:32;;;;;;;4.38;2.10;;;12.60;99.90;;;;;;6138541;23;20005;-68
2023/11/23 10:59:05;;;;;;;3.10;2.00;;;12.60;99.90;;;;;;6148694;23;20013;-69
2023/11/23 11:01:32;;;;;;;2.78;1.92;;;12.60;99.90;;;;;;6150316;23;20001;-68
2023/11/23 11:03:58;;;;;;;4.38;2.58;;;12.60;99.90;;;;;;6120394;23;20092;-69
2023/11/23 11:06:25;;;;;;;4.45;2.05;;;12.60;99.90;;;;;;6150331;23;20002;-69
2023/11/23 11:08:51;;;;;;;3.00;1.95;;;12.60;99.90;;;;;;6149512;23;20010;-69
2023/11/23 11:11:24;;;;;;;2.97;1.80;;;12.70;99.90;;;;;;6146272;23;20008;-69
2023/11/23 11:13:58;;;;;;;6.20;2.47;;;12.60;99.90;;;;;;6122325;23;20001;-69
2023/11/23 11:16:33;;;;;;;4.07;2.25;;;12.60;99.90;;;;;;6123845;23;20009;-68
2023/11/23 11:19:06;;;;;;;4.57;2.50;;;12.70;99.90;;;;;;6122766;23;20005;-69
2023/11/23 11:21:46;;;;;;;4.45;2.00;;;12.60;99.90;;;;;;6151056;23;20001;-69
2023/11/23 11:24:20;;;;;;;4.72;1.95;;;12.70;99.90;;;;;;6149720;23;20068;-69
2023/11/23 11:26:46;;;;;;;3.78;1.95;;;12.70;99.90;;;;;;6121279;23;20009;-68
2023/11/23 11:29:13;;;;;;;3.42;1.77;;;12.70;99.90;;;;;;6146397;23;20430;-68
2023/11/23 11:31:40;;;;;;;2.53;1.75;;;12.70;99.90;;;;;;6146986;23;20021;-70
2023/11/23 11:34:15;;;;;;;2.53;1.60;;;12.80;99.90;;;;;;6147022;23;20006;-69
2023/11/23 11:36:41;;;;;;;2.22;1.60;;;12.80;99.90;;;;;;6145171;23;20055;-69
2023/11/23 11:39:10;;;;;;;2.58;1.33;;;12.80;99.90;;;;;;6144056;23;20033;-69
2023/11/23 11:41:49;;;;;;;4.25;2.10;;;12.80;99.90;;;;;;6121014;23;20014;-69
2023/11/23 11:44:15;;;;;;;4.88;1.70;;;12.90;99.90;;;;;;6147825;23;20010;-68
2023/11/23 11:46:41;;;;;;;2.65;1.42;;;12.80;99.90;;;;;;6148128;23;20001;-69
2023/11/23 11:49:09;;;;;;;2.58;1.48;;;12.90;99.90;;;;;;6149969;23;20005;-68
2023/11/23 11:51:35;;;;;;;1.35;1.20;;;12.90;99.90;;;;;;6149498;23;20005;-69
2023/11/23 11:54:01;;;;;;;1.55;1.08;;;13.00;99.90;;;;;;6150947;23;20006;-70
2023/11/23 11:56:27;;;;;;;3.65;1.60;;;13.00;99.90;;;;;;6149660;23;20014;-68
2023/11/23 11:58:52;;;;;;;2.30;1.33;;;13.00;99.90;;;;;;6150220;23;20052;-68
2023/11/23 12:01:19;;;;;;;6.75;2.63;;;13.00;99.90;;;;;;6149348;23;20013;-69
2023/11/23 12:03:51;;;;;;;5.47;2.42;;;13.00;99.90;;;;;;6150770;23;20006;-69
2023/11/23 12:06:19;;;;;;;3.50;1.80;;;13.00;99.90;;;;;;6149507;23;20006;-69
2023/11/23 12:08:45;;;;;;;2.17;1.55;;;13.00;99.90;;;;;;6124968;23;20048;-70
2023/11/23 12:11:24;;;;;;;2.38;1.50;;;13.00;99.90;;;;;;6150247;23;20005;-68
2023/11/23 12:13:54;;;;;;;1.83;1.20;;;13.00;99.90;;;;;;6150379;23;20013;-70
2023/11/23 12:16:20;;;;;;;1.95;1.00;;;13.10;99.90;;;;;;6150762;23;20009;-69
2023/11/23 12:18:46;;;;;;;2.08;1.10;;;13.10;99.90;;;;;;6150090;23;20006;-69
2023/11/23 12:21:17;;;;;;;2.30;1.45;;;13.10;99.90;;;;;;6150967;23;20037;-69
2023/11/23 12:23:44;;;;;;;2.45;1.40;;;13.10;99.90;;;;;;6150405;23;20002;-68
2023/11/23 12:26:10;;;;;;;2.55;1.20;;;13.20;99.90;;;;;;6150509;23;20033;-70
2023/11/23 12:28:37;;;;;;;2.40;1.60;;;13.20;99.90;;;;;;6150044;23;20601;-69
2023/11/23 12:31:03;;;;;;;1.77;1.20;;;13.20;99.90;;;;;;6150710;23;20006;-69
2023/11/23 12:33:28;;;;;;;2.25;1.08;;;13.20;99.90;;;;;;6123783;23;20035;-71
2023/11/23 12:35:54;;;;;;;1.95;1.33;;;13.20;99.90;;;;;;6149254;23;20005;-70
2023/11/23 12:38:20;;;;;;;2.35;1.48;;;13.20;99.90;;;;;;6124440;23;20025;-70
2023/11/23 12:40:46;;;;;;;2.33;1.35;;;13.30;99.90;;;;;;6150608;23;20006;-70
2023/11/23 12:43:13;;;;;;;1.23;0.88;;;13.30;99.90;;;;;;6150744;23;20040;-70
2023/11/23 12:45:41;;;;;;;3.92;1.30;;;13.30;99.90;;;;;;6149107;23;20002;-70
2023/11/23 12:48:07;;;;;;;2.08;1.13;;;13.30;99.70;;;;;;6150511;23;20028;-70
2023/11/23 12:50:33;;;;;;;1.65;1.20;;;13.30;99.80;;;;;;6150251;23;20076;-68
2023/11/23 12:52:58;;;;;;;2.92;1.10;;;13.30;99.70;;;;;;6149706;23;20001;-70